Swaffham, United Kingdom
Current Conditions -  °F | °C
As of 7:50 AM on Thursday 27 Nov 2014 (Local Time) from EGYM Reporting Station
Haze Haze  
Wind Chill: 50°   Ceiling: 5000
Heat Index: 50°   Visibility: 2.1mi
Dew Point: 50°   Wind: 8mph
Humidity: 100%   Direction: 130°SE
Pressure: 29.62"   Gusts: NA
Location:  52.65°N, 0.69°E
Report Text: EGYM 270750Z 13007KT 3500 BR FEW002 SCT040 BKN050 10/10 Q1003 YLO1 BECMG 4000 BR SCT008 GRN
Loading
Personal Weather Stations






























Interactive Weather Map New forecast layout! Learn more

10-Day Weather Forecast

Advertisements
Track Severe Weather on mobile